sensor_id;sensor_type;location;lat;lon;timestamp;temperature;humidity
51661;DHT22;37741;49.748;8.490;2024-03-02T00:01:10;6.80;86.00
51661;DHT22;37741;49.748;8.490;2024-03-02T00:03:39;6.90;86.20
51661;DHT22;37741;49.748;8.490;2024-03-02T00:06:06;6.90;86.30
51661;DHT22;37741;49.748;8.490;2024-03-02T00:08:32;6.90;86.20
51661;DHT22;37741;49.748;8.490;2024-03-02T00:10:59;6.80;86.10
51661;DHT22;37741;49.748;8.490;2024-03-02T00:13:25;6.90;86.30
51661;DHT22;37741;49.748;8.490;2024-03-02T00:15:55;6.80;86.30
51661;DHT22;37741;49.748;8.490;2024-03-02T00:18:27;6.80;86.30
51661;DHT22;37741;49.748;8.490;2024-03-02T00:20:56;6.80;86.30
51661;DHT22;37741;49.748;8.490;2024-03-02T00:23:24;6.80;86.30
51661;DHT22;37741;49.748;8.490;2024-03-02T00:25:54;6.80;86.40
51661;DHT22;37741;49.748;8.490;2024-03-02T00:28:27;6.80;86.40
51661;DHT22;37741;49.748;8.490;2024-03-02T00:31:08;6.70;86.40
51661;DHT22;37741;49.748;8.490;2024-03-02T00:33:44;6.80;86.40
51661;DHT22;37741;49.748;8.490;2024-03-02T00:36:14;6.70;86.30
51661;DHT22;37741;49.748;8.490;2024-03-02T00:38:51;6.70;86.40
51661;DHT22;37741;49.748;8.490;2024-03-02T00:41:29;6.70;86.40
51661;DHT22;37741;49.748;8.490;2024-03-02T00:44:05;6.70;86.30
51661;DHT22;37741;49.748;8.490;2024-03-02T00:46:36;6.70;86.40
51661;DHT22;37741;49.748;8.490;2024-03-02T00:49:04;6.70;86.40
51661;DHT22;37741;49.748;8.490;2024-03-02T00:51:31;6.70;86.50
51661;DHT22;37741;49.748;8.490;2024-03-02T00:54:03;6.70;87.00
51661;DHT22;37741;49.748;8.490;2024-03-02T00:56:30;6.60;86.50
51661;DHT22;37741;49.748;8.490;2024-03-02T00:58:56;6.60;86.50
51661;DHT22;37741;49.748;8.490;2024-03-02T01:01:22;6.60;86.50
51661;DHT22;37741;49.748;8.490;2024-03-02T01:03:48;6.60;86.40
51661;DHT22;37741;49.748;8.490;2024-03-02T01:06:15;6.60;86.50
51661;DHT22;37741;49.748;8.490;2024-03-02T01:08:40;6.60;86.50
51661;DHT22;37741;49.748;8.490;2024-03-02T01:11:06;6.60;87.10
51661;DHT22;37741;49.748;8.490;2024-03-02T01:13:32;6.50;86.40
51661;DHT22;37741;49.748;8.490;2024-03-02T01:15:58;6.50;86.40
51661;DHT22;37741;49.748;8.490;2024-03-02T01:18:24;6.50;86.50
51661;DHT22;37741;49.748;8.490;2024-03-02T01:20:50;6.50;86.50
51661;DHT22;37741;49.748;8.490;2024-03-02T01:23:24;6.50;86.50
51661;DHT22;37741;49.748;8.490;2024-03-02T01:25:51;6.50;86.50
51661;DHT22;37741;49.748;8.490;2024-03-02T01:28:18;6.50;86.60
51661;DHT22;37741;49.748;8.490;2024-03-02T01:30:44;6.50;86.60
51661;DHT22;37741;49.748;8.490;2024-03-02T01:33:10;6.50;86.60
51661;DHT22;37741;49.748;8.490;2024-03-02T01:35:36;6.40;86.60
51661;DHT22;37741;49.748;8.490;2024-03-02T01:38:03;6.40;86.60
51661;DHT22;37741;49.748;8.490;2024-03-02T01:40:29;6.40;86.50
51661;DHT22;37741;49.748;8.490;2024-03-02T01:42:54;6.40;86.50
51661;DHT22;37741;49.748;8.490;2024-03-02T01:45:21;6.40;86.60
51661;DHT22;37741;49.748;8.490;2024-03-02T01:47:47;6.40;86.60
51661;DHT22;37741;49.748;8.490;2024-03-02T01:50:13;6.40;86.70
51661;DHT22;37741;49.748;8.490;2024-03-02T01:52:39;6.30;86.60
51661;DHT22;37741;49.748;8.490;2024-03-02T01:55:05;6.30;86.60
51661;DHT22;37741;49.748;8.490;2024-03-02T01:57:32;6.30;86.50
51661;DHT22;37741;49.748;8.490;2024-03-02T01:59:58;6.30;86.70
51661;DHT22;37741;49.748;8.490;2024-03-02T02:02:24;6.30;86.60
51661;DHT22;37741;49.748;8.490;2024-03-02T02:04:49;6.30;86.60
51661;DHT22;37741;49.748;8.490;2024-03-02T02:07:15;6.30;86.60
51661;DHT22;37741;49.748;8.490;2024-03-02T02:09:41;6.20;86.60
51661;DHT22;37741;49.748;8.490;2024-03-02T02:12:08;6.20;86.60
51661;DHT22;37741;49.748;8.490;2024-03-02T02:14:33;6.30;86.60
51661;DHT22;37741;49.748;8.490;2024-03-02T02:16:59;6.20;86.60
51661;DHT22;37741;49.748;8.490;2024-03-02T02:19:25;6.20;86.60
51661;DHT22;37741;49.748;8.490;2024-03-02T02:21:51;6.20;87.20
51661;DHT22;37741;49.748;8.490;2024-03-02T02:24:16;6.20;86.60
51661;DHT22;37741;49.748;8.490;2024-03-02T02:26:42;6.20;86.70
51661;DHT22;37741;49.748;8.490;2024-03-02T02:29:07;6.20;86.70
51661;DHT22;37741;49.748;8.490;2024-03-02T02:31:37;6.10;86.60
51661;DHT22;37741;49.748;8.490;2024-03-02T02:34:03;6.10;86.60
51661;DHT22;37741;49.748;8.490;2024-03-02T02:36:29;6.10;86.60
51661;DHT22;37741;49.748;8.490;2024-03-02T02:38:54;6.10;86.60
51661;DHT22;37741;49.748;8.490;2024-03-02T02:41:20;6.10;86.60
51661;DHT22;37741;49.748;8.490;2024-03-02T02:43:46;6.10;86.60
51661;DHT22;37741;49.748;8.490;2024-03-02T02:46:11;6.00;86.60
51661;DHT22;37741;49.748;8.490;2024-03-02T02:48:37;6.10;86.70
51661;DHT22;37741;49.748;8.490;2024-03-02T02:51:03;6.10;86.70
51661;DHT22;37741;49.748;8.490;2024-03-02T02:53:28;6.00;86.70
51661;DHT22;37741;49.748;8.490;2024-03-02T02:55:54;6.00;86.70
51661;DHT22;37741;49.748;8.490;2024-03-02T02:58:20;6.00;86.70
51661;DHT22;37741;49.748;8.490;2024-03-02T03:00:46;6.00;86.70
51661;DHT22;37741;49.748;8.490;2024-03-02T03:03:12;6.00;86.70
51661;DHT22;37741;49.748;8.490;2024-03-02T03:05:38;6.00;86.80
51661;DHT22;37741;49.748;8.490;2024-03-02T03:08:03;6.00;86.80
51661;DHT22;37741;49.748;8.490;2024-03-02T03:10:29;5.90;86.70
51661;DHT22;37741;49.748;8.490;2024-03-02T03:12:55;6.00;86.80
51661;DHT22;37741;49.748;8.490;2024-03-02T03:15:21;5.90;86.70
51661;DHT22;37741;49.748;8.490;2024-03-02T03:17:47;5.90;86.80
51661;DHT22;37741;49.748;8.490;2024-03-02T03:20:13;5.90;86.80
51661;DHT22;37741;49.748;8.490;2024-03-02T03:22:58;5.90;86.80
51661;DHT22;37741;49.748;8.490;2024-03-02T03:25:24;5.90;86.80
51661;DHT22;37741;49.748;8.490;2024-03-02T03:27:49;5.80;86.80
51661;DHT22;37741;49.748;8.490;2024-03-02T03:30:17;5.80;86.90
51661;DHT22;37741;49.748;8.490;2024-03-02T03:32:43;5.80;86.90
51661;DHT22;37741;49.748;8.490;2024-03-02T03:35:09;5.80;86.90
51661;DHT22;37741;49.748;8.490;2024-03-02T03:37:34;5.80;86.90
51661;DHT22;37741;49.748;8.490;2024-03-02T03:40:02;5.80;86.90
51661;DHT22;37741;49.748;8.490;2024-03-02T03:42:28;5.80;86.90
51661;DHT22;37741;49.748;8.490;2024-03-02T03:44:53;5.80;87.00
51661;DHT22;37741;49.748;8.490;2024-03-02T03:47:19;5.80;87.00
51661;DHT22;37741;49.748;8.490;2024-03-02T03:49:45;5.80;87.00
51661;DHT22;37741;49.748;8.490;2024-03-02T03:52:11;5.80;87.70
51661;DHT22;37741;49.748;8.490;2024-03-02T03:54:37;5.70;87.10
51661;DHT22;37741;49.748;8.490;2024-03-02T03:57:04;5.70;87.10
51661;DHT22;37741;49.748;8.490;2024-03-02T03:59:30;5.70;87.20
51661;DHT22;37741;49.748;8.490;2024-03-02T04:01:55;5.70;87.20
51661;DHT22;37741;49.748;8.490;2024-03-02T04:04:21;5.70;87.20
51661;DHT22;37741;49.748;8.490;2024-03-02T04:06:47;5.70;87.20
51661;DHT22;37741;49.748;8.490;2024-03-02T04:09:13;5.70;87.30
51661;DHT22;37741;49.748;8.490;2024-03-02T04:11:39;5.70;87.30
51661;DHT22;37741;49.748;8.490;2024-03-02T04:14:04;5.70;87.30
51661;DHT22;37741;49.748;8.490;2024-03-02T04:16:31;5.70;87.30
51661;DHT22;37741;49.748;8.490;2024-03-02T04:18:57;5.70;87.30
51661;DHT22;37741;49.748;8.490;2024-03-02T04:21:23;5.60;87.30
51661;DHT22;37741;49.748;8.490;2024-03-02T04:23:48;5.60;87.30
51661;DHT22;37741;49.748;8.490;2024-03-02T04:26:14;5.60;87.30
51661;DHT22;37741;49.748;8.490;2024-03-02T04:28:40;5.60;87.30
51661;DHT22;37741;49.748;8.490;2024-03-02T04:31:06;5.60;87.40
51661;DHT22;37741;49.748;8.490;2024-03-02T04:33:31;5.60;87.30
51661;DHT22;37741;49.748;8.490;2024-03-02T04:35:57;5.60;87.30
51661;DHT22;37741;49.748;8.490;2024-03-02T04:38:23;5.60;87.40
51661;DHT22;37741;49.748;8.490;2024-03-02T04:40:48;5.60;87.40
51661;DHT22;37741;49.748;8.490;2024-03-02T04:43:14;5.60;87.40
51661;DHT22;37741;49.748;8.490;2024-03-02T04:45:42;5.60;87.40
51661;DHT22;37741;49.748;8.490;2024-03-02T04:48:08;5.60;87.40
51661;DHT22;37741;49.748;8.490;2024-03-02T04:50:34;5.60;87.40
51661;DHT22;37741;49.748;8.490;2024-03-02T04:53:00;5.60;87.50
51661;DHT22;37741;49.748;8.490;2024-03-02T04:55:25;5.50;87.40
51661;DHT22;37741;49.748;8.490;2024-03-02T04:57:54;5.50;87.40
51661;DHT22;37741;49.748;8.490;2024-03-02T05:00:23;5.50;87.40
51661;DHT22;37741;49.748;8.490;2024-03-02T05:02:48;5.50;87.50
51661;DHT22;37741;49.748;8.490;2024-03-02T05:05:14;5.50;87.50
51661;DHT22;37741;49.748;8.490;2024-03-02T05:07:41;5.50;87.50
51661;DHT22;37741;49.748;8.490;2024-03-02T05:10:10;5.50;87.50
51661;DHT22;37741;49.748;8.490;2024-03-02T05:12:37;5.50;87.50
51661;DHT22;37741;49.748;8.490;2024-03-02T05:15:15;5.50;87.50
51661;DHT22;37741;49.748;8.490;2024-03-02T05:17:42;5.50;87.60
51661;DHT22;37741;49.748;8.490;2024-03-02T05:20:11;5.40;87.60
51661;DHT22;37741;49.748;8.490;2024-03-02T05:22:37;5.40;87.60
51661;DHT22;37741;49.748;8.490;2024-03-02T05:25:09;5.40;87.60
51661;DHT22;37741;49.748;8.490;2024-03-02T05:27:36;5.40;87.60
51661;DHT22;37741;49.748;8.490;2024-03-02T05:30:02;5.40;87.60
51661;DHT22;37741;49.748;8.490;2024-03-02T05:32:27;5.40;87.60
51661;DHT22;37741;49.748;8.490;2024-03-02T05:34:53;5.40;87.60
51661;DHT22;37741;49.748;8.490;2024-03-02T05:37:19;5.40;87.60
51661;DHT22;37741;49.748;8.490;2024-03-02T05:39:45;5.40;87.70
51661;DHT22;37741;49.748;8.490;2024-03-02T05:42:11;5.40;87.60
51661;DHT22;37741;49.748;8.490;2024-03-02T05:44:40;5.40;87.70
51661;DHT22;37741;49.748;8.490;2024-03-02T05:47:05;5.30;87.60
51661;DHT22;37741;49.748;8.490;2024-03-02T05:49:34;5.40;87.70
51661;DHT22;37741;49.748;8.490;2024-03-02T05:52:00;5.30;87.60
51661;DHT22;37741;49.748;8.490;2024-03-02T05:54:26;5.30;87.70
51661;DHT22;37741;49.748;8.490;2024-03-02T05:56:51;5.30;87.60
51661;DHT22;37741;49.748;8.490;2024-03-02T05:59:17;5.30;87.70
51661;DHT22;37741;49.748;8.490;2024-03-02T06:01:43;5.30;87.70
51661;DHT22;37741;49.748;8.490;2024-03-02T06:04:10;5.30;87.70
51661;DHT22;37741;49.748;8.490;2024-03-02T06:06:36;5.30;87.70
51661;DHT22;37741;49.748;8.490;2024-03-02T06:09:03;5.30;87.80
51661;DHT22;37741;49.748;8.490;2024-03-02T06:11:39;5.30;87.80
51661;DHT22;37741;49.748;8.490;2024-03-02T06:14:05;5.30;87.80
51661;DHT22;37741;49.748;8.490;2024-03-02T06:16:32;5.30;87.80
51661;DHT22;37741;49.748;8.490;2024-03-02T06:18:58;5.30;87.90
51661;DHT22;37741;49.748;8.490;2024-03-02T06:21:24;5.20;87.90
51661;DHT22;37741;49.748;8.490;2024-03-02T06:23:50;5.30;88.00
51661;DHT22;37741;49.748;8.490;2024-03-02T06:26:16;5.30;88.00
51661;DHT22;37741;49.748;8.490;2024-03-02T06:28:42;5.30;88.00
51661;DHT22;37741;49.748;8.490;2024-03-02T06:31:08;5.30;88.00
51661;DHT22;37741;49.748;8.490;2024-03-02T06:33:34;5.30;87.90
51661;DHT22;37741;49.748;8.490;2024-03-02T06:36:00;5.30;88.60
51661;DHT22;37741;49.748;8.490;2024-03-02T06:38:26;5.20;87.90
51661;DHT22;37741;49.748;8.490;2024-03-02T06:40:52;5.30;88.00
51661;DHT22;37741;49.748;8.490;2024-03-02T06:43:23;5.20;87.90
51661;DHT22;37741;49.748;8.490;2024-03-02T06:45:50;5.20;87.90
51661;DHT22;37741;49.748;8.490;2024-03-02T06:48:16;5.20;87.90
51661;DHT22;37741;49.748;8.490;2024-03-02T06:50:48;5.20;87.90
51661;DHT22;37741;49.748;8.490;2024-03-02T06:53:14;5.30;87.90
51661;DHT22;37741;49.748;8.490;2024-03-02T06:55:43;5.20;87.90
51661;DHT22;37741;49.748;8.490;2024-03-02T06:58:10;5.20;87.90
51661;DHT22;37741;49.748;8.490;2024-03-02T07:00:36;5.20;87.90
51661;DHT22;37741;49.748;8.490;2024-03-02T07:03:02;5.20;87.90
51661;DHT22;37741;49.748;8.490;2024-03-02T07:05:27;5.20;88.00
51661;DHT22;37741;49.748;8.490;2024-03-02T07:07:53;5.20;88.00
51661;DHT22;37741;49.748;8.490;2024-03-02T07:10:19;5.20;88.00
51661;DHT22;37741;49.748;8.490;2024-03-02T07:12:44;5.20;88.00
51661;DHT22;37741;49.748;8.490;2024-03-02T07:15:10;5.20;88.00
51661;DHT22;37741;49.748;8.490;2024-03-02T07:17:54;5.20;88.00
51661;DHT22;37741;49.748;8.490;2024-03-02T07:20:20;5.20;88.00
51661;DHT22;37741;49.748;8.490;2024-03-02T07:22:45;5.20;88.10
51661;DHT22;37741;49.748;8.490;2024-03-02T07:25:11;5.20;88.10
51661;DHT22;37741;49.748;8.490;2024-03-02T07:27:38;5.20;88.10
51661;DHT22;37741;49.748;8.490;2024-03-02T07:30:04;5.20;88.10
51661;DHT22;37741;49.748;8.490;2024-03-02T07:32:29;5.20;88.10
51661;DHT22;37741;49.748;8.490;2024-03-02T07:34:55;5.20;88.10
51661;DHT22;37741;49.748;8.490;2024-03-02T07:37:22;5.10;88.10
51661;DHT22;37741;49.748;8.490;2024-03-02T07:39:47;5.10;88.10
51661;DHT22;37741;49.748;8.490;2024-03-02T07:42:13;5.20;88.20
51661;DHT22;37741;49.748;8.490;2024-03-02T07:44:39;5.20;88.40
51661;DHT22;37741;49.748;8.490;2024-03-02T07:47:05;5.20;88.20
51661;DHT22;37741;49.748;8.490;2024-03-02T07:49:30;5.20;88.10
51661;DHT22;37741;49.748;8.490;2024-03-02T07:51:56;5.20;88.10
51661;DHT22;37741;49.748;8.490;2024-03-02T07:54:23;5.20;88.10
51661;DHT22;37741;49.748;8.490;2024-03-02T07:56:48;5.20;88.10
51661;DHT22;37741;49.748;8.490;2024-03-02T07:59:14;5.20;88.20
51661;DHT22;37741;49.748;8.490;2024-03-02T08:01:40;5.20;88.20
51661;DHT22;37741;49.748;8.490;2024-03-02T08:04:06;5.20;88.10
51661;DHT22;37741;49.748;8.490;2024-03-02T08:06:32;5.20;88.20
51661;DHT22;37741;49.748;8.490;2024-03-02T08:11:11;5.30;90.30
51661;DHT22;37741;49.748;8.490;2024-03-02T08:13:38;5.40;91.00
51661;DHT22;37741;49.748;8.490;2024-03-02T08:16:04;5.40;91.00
51661;DHT22;37741;49.748;8.490;2024-03-02T08:18:32;5.40;91.00
51661;DHT22;37741;49.748;8.490;2024-03-02T08:20:58;5.40;91.30
51661;DHT22;37741;49.748;8.490;2024-03-02T08:23:23;5.40;91.30
51661;DHT22;37741;49.748;8.490;2024-03-02T08:25:49;5.50;91.60
51661;DHT22;37741;49.748;8.490;2024-03-02T08:28:15;5.50;92.00
51661;DHT22;37741;49.748;8.490;2024-03-02T08:30:40;5.50;91.80
51661;DHT22;37741;49.748;8.490;2024-03-02T08:33:06;5.50;91.90
51661;DHT22;37741;49.748;8.490;2024-03-02T08:35:31;5.60;91.80
51661;DHT22;37741;49.748;8.490;2024-03-02T08:38:02;5.60;92.20
51661;DHT22;37741;49.748;8.490;2024-03-02T08:40:28;5.60;91.90
51661;DHT22;37741;49.748;8.490;2024-03-02T08:42:54;5.70;91.80
51661;DHT22;37741;49.748;8.490;2024-03-02T08:45:20;5.70;91.90
51661;DHT22;37741;49.748;8.490;2024-03-02T08:47:46;5.70;92.30
51661;DHT22;37741;49.748;8.490;2024-03-02T08:50:12;5.80;92.50
51661;DHT22;37741;49.748;8.490;2024-03-02T08:52:37;5.80;92.80
51661;DHT22;37741;49.748;8.490;2024-03-02T08:55:03;5.80;92.90
51661;DHT22;37741;49.748;8.490;2024-03-02T08:57:30;5.90;92.70
51661;DHT22;37741;49.748;8.490;2024-03-02T08:59:55;6.00;92.90
51661;DHT22;37741;49.748;8.490;2024-03-02T09:02:21;6.00;92.60
51661;DHT22;37741;49.748;8.490;2024-03-02T09:04:47;6.10;93.20
51661;DHT22;37741;49.748;8.490;2024-03-02T09:07:14;6.10;93.00
51661;DHT22;37741;49.748;8.490;2024-03-02T09:09:39;6.20;92.70
51661;DHT22;37741;49.748;8.490;2024-03-02T09:12:06;6.20;92.50
51661;DHT22;37741;49.748;8.490;2024-03-02T09:14:32;6.20;92.40
51661;DHT22;37741;49.748;8.490;2024-03-02T09:16:58;6.20;92.70
51661;DHT22;37741;49.748;8.490;2024-03-02T09:19:23;6.30;93.10
51661;DHT22;37741;49.748;8.490;2024-03-02T09:21:49;6.30;92.90
51661;DHT22;37741;49.748;8.490;2024-03-02T09:24:15;6.40;93.10
51661;DHT22;37741;49.748;8.490;2024-03-02T09:26:41;6.50;92.70
51661;DHT22;37741;49.748;8.490;2024-03-02T09:29:06;6.60;92.70
51661;DHT22;37741;49.748;8.490;2024-03-02T09:31:32;6.60;93.10
51661;DHT22;37741;49.748;8.490;2024-03-02T09:33:58;6.70;92.90
51661;DHT22;37741;49.748;8.490;2024-03-02T09:36:24;6.80;92.80
51661;DHT22;37741;49.748;8.490;2024-03-02T09:38:49;6.80;92.70
51661;DHT22;37741;49.748;8.490;2024-03-02T09:41:15;6.90;92.90
51661;DHT22;37741;49.748;8.490;2024-03-02T09:43:41;7.00;93.20
51661;DHT22;37741;49.748;8.490;2024-03-02T09:46:09;7.00;92.90
51661;DHT22;37741;49.748;8.490;2024-03-02T09:48:35;7.10;93.00
51661;DHT22;37741;49.748;8.490;2024-03-02T09:51:01;7.20;92.90
51661;DHT22;37741;49.748;8.490;2024-03-02T09:53:33;7.20;93.10
51661;DHT22;37741;49.748;8.490;2024-03-02T09:56:00;7.30;92.90
51661;DHT22;37741;49.748;8.490;2024-03-02T09:58:26;7.40;92.70
51661;DHT22;37741;49.748;8.490;2024-03-02T10:00:51;7.40;92.40
51661;DHT22;37741;49.748;8.490;2024-03-02T10:03:18;7.50;92.00
51661;DHT22;37741;49.748;8.490;2024-03-02T10:05:44;7.50;90.90
51661;DHT22;37741;49.748;8.490;2024-03-02T10:08:10;7.50;90.40
51661;DHT22;37741;49.748;8.490;2024-03-02T10:10:38;7.60;90.70
51661;DHT22;37741;49.748;8.490;2024-03-02T10:13:10;7.70;90.50
51661;DHT22;37741;49.748;8.490;2024-03-02T10:15:36;7.80;90.60
51661;DHT22;37741;49.748;8.490;2024-03-02T10:18:12;7.80;90.50
51661;DHT22;37741;49.748;8.490;2024-03-02T10:20:39;8.00;90.20
51661;DHT22;37741;49.748;8.490;2024-03-02T10:23:16;8.10;89.80
51661;DHT22;37741;49.748;8.490;2024-03-02T10:25:43;8.10;88.40
51661;DHT22;37741;49.748;8.490;2024-03-02T10:28:09;8.20;86.90
51661;DHT22;37741;49.748;8.490;2024-03-02T10:30:35;8.30;85.20
51661;DHT22;37741;49.748;8.490;2024-03-02T10:33:02;8.40;85.10
51661;DHT22;37741;49.748;8.490;2024-03-02T10:35:28;8.50;84.10
51661;DHT22;37741;49.748;8.490;2024-03-02T10:37:54;8.60;85.50
51661;DHT22;37741;49.748;8.490;2024-03-02T10:40:23;8.70;84.50
51661;DHT22;37741;49.748;8.490;2024-03-02T10:42:50;8.70;83.50
51661;DHT22;37741;49.748;8.490;2024-03-02T10:45:20;8.80;82.60
51661;DHT22;37741;49.748;8.490;2024-03-02T10:47:47;8.80;82.60
51661;DHT22;37741;49.748;8.490;2024-03-02T10:50:13;8.80;83.20
51661;DHT22;37741;49.748;8.490;2024-03-02T10:52:39;8.80;82.60
51661;DHT22;37741;49.748;8.490;2024-03-02T10:55:06;8.90;82.40
51661;DHT22;37741;49.748;8.490;2024-03-02T10:57:53;9.00;81.90
51661;DHT22;37741;49.748;8.490;2024-03-02T11:00:20;9.10;81.50
51661;DHT22;37741;49.748;8.490;2024-03-02T11:02:55;9.10;82.20
51661;DHT22;37741;49.748;8.490;2024-03-02T11:05:30;9.20;82.30
51661;DHT22;37741;49.748;8.490;2024-03-02T11:08:07;9.20;81.70
51661;DHT22;37741;49.748;8.490;2024-03-02T11:10:36;9.30;80.70
51661;DHT22;37741;49.748;8.490;2024-03-02T11:13:05;9.30;81.80
51661;DHT22;37741;49.748;8.490;2024-03-02T11:15:31;9.30;81.20
51661;DHT22;37741;49.748;8.490;2024-03-02T11:18:04;9.40;81.70
51661;DHT22;37741;49.748;8.490;2024-03-02T11:20:36;9.40;81.30
51661;DHT22;37741;49.748;8.490;2024-03-02T11:23:06;9.50;81.10
51661;DHT22;37741;49.748;8.490;2024-03-02T11:25:32;9.50;81.70
51661;DHT22;37741;49.748;8.490;2024-03-02T11:28:03;9.60;82.20
51661;DHT22;37741;49.748;8.490;2024-03-02T11:33:01;9.70;80.00
51661;DHT22;37741;49.748;8.490;2024-03-02T11:35:45;9.70;79.90
51661;DHT22;37741;49.748;8.490;2024-03-02T11:38:12;9.80;81.10
51661;DHT22;37741;49.748;8.490;2024-03-02T11:40:41;9.80;81.50
51661;DHT22;37741;49.748;8.490;2024-03-02T11:43:08;9.90;81.40
51661;DHT22;37741;49.748;8.490;2024-03-02T11:45:35;10.00;78.80
51661;DHT22;37741;49.748;8.490;2024-03-02T11:48:06;10.10;77.80
51661;DHT22;37741;49.748;8.490;2024-03-02T11:50:43;10.20;78.30
51661;DHT22;37741;49.748;8.490;2024-03-02T11:53:11;10.20;77.20
51661;DHT22;37741;49.748;8.490;2024-03-02T11:55:38;10.30;77.00
51661;DHT22;37741;49.748;8.490;2024-03-02T11:58:12;10.30;77.10
51661;DHT22;37741;49.748;8.490;2024-03-02T12:00:38;10.40;76.70
51661;DHT22;37741;49.748;8.490;2024-03-02T12:03:06;10.50;77.50
51661;DHT22;37741;49.748;8.490;2024-03-02T12:05:32;10.60;78.20
51661;DHT22;37741;49.748;8.490;2024-03-02T12:08:02;10.70;78.00
51661;DHT22;37741;49.748;8.490;2024-03-02T12:10:30;10.80;78.20
51661;DHT22;37741;49.748;8.490;2024-03-02T12:13:14;11.00;76.50
51661;DHT22;37741;49.748;8.490;2024-03-02T12:15:40;11.10;77.20
51661;DHT22;37741;49.748;8.490;2024-03-02T12:18:06;11.20;74.10
51661;DHT22;37741;49.748;8.490;2024-03-02T12:20:33;11.30;74.60
51661;DHT22;37741;49.748;8.490;2024-03-02T12:23:00;11.50;76.10
51661;DHT22;37741;49.748;8.490;2024-03-02T12:25:27;11.60;75.10
51661;DHT22;37741;49.748;8.490;2024-03-02T12:27:57;11.70;73.00
51661;DHT22;37741;49.748;8.490;2024-03-02T12:30:24;11.80;73.70
51661;DHT22;37741;49.748;8.490;2024-03-02T12:32:50;11.80;71.10
51661;DHT22;37741;49.748;8.490;2024-03-02T12:35:16;12.00;70.20
51661;DHT22;37741;49.748;8.490;2024-03-02T12:37:48;12.10;70.10
51661;DHT22;37741;49.748;8.490;2024-03-02T12:40:15;12.20;69.30
51661;DHT22;37741;49.748;8.490;2024-03-02T12:42:43;12.20;69.60
51661;DHT22;37741;49.748;8.490;2024-03-02T12:45:08;12.30;69.20
51661;DHT22;37741;49.748;8.490;2024-03-02T12:47:35;12.30;69.40
51661;DHT22;37741;49.748;8.490;2024-03-02T12:50:01;12.20;69.50
51661;DHT22;37741;49.748;8.490;2024-03-02T12:52:28;12.20;69.80
51661;DHT22;37741;49.748;8.490;2024-03-02T12:54:54;12.30;68.10
51661;DHT22;37741;49.748;8.490;2024-03-02T12:57:26;12.20;69.00
51661;DHT22;37741;49.748;8.490;2024-03-02T12:59:56;12.30;69.30
51661;DHT22;37741;49.748;8.490;2024-03-02T13:02:22;12.30;70.10
51661;DHT22;37741;49.748;8.490;2024-03-02T13:04:54;12.30;68.90
51661;DHT22;37741;49.748;8.490;2024-03-02T13:07:21;12.30;68.40
51661;DHT22;37741;49.748;8.490;2024-03-02T13:09:49;12.30;67.70
51661;DHT22;37741;49.748;8.490;2024-03-02T13:12:16;12.40;67.90
51661;DHT22;37741;49.748;8.490;2024-03-02T13:14:42;12.50;68.10
51661;DHT22;37741;49.748;8.490;2024-03-02T13:17:11;12.70;68.90
51661;DHT22;37741;49.748;8.490;2024-03-02T13:19:56;12.80;68.60
51661;DHT22;37741;49.748;8.490;2024-03-02T13:22:22;13.00;65.60
51661;DHT22;37741;49.748;8.490;2024-03-02T13:24:49;13.10;66.20
51661;DHT22;37741;49.748;8.490;2024-03-02T13:27:15;13.20;65.60
51661;DHT22;37741;49.748;8.490;2024-03-02T13:29:41;13.20;65.20
51661;DHT22;37741;49.748;8.490;2024-03-02T13:32:07;13.30;65.40
51661;DHT22;37741;49.748;8.490;2024-03-02T13:34:35;13.50;64.90
51661;DHT22;37741;49.748;8.490;2024-03-02T13:37:01;13.60;64.40
51661;DHT22;37741;49.748;8.490;2024-03-02T13:39:27;13.70;63.70
51661;DHT22;37741;49.748;8.490;2024-03-02T13:41:53;13.80;62.60
51661;DHT22;37741;49.748;8.490;2024-03-02T13:44:22;13.80;61.40
51661;DHT22;37741;49.748;8.490;2024-03-02T13:46:48;13.90;60.30
51661;DHT22;37741;49.748;8.490;2024-03-02T13:49:14;13.90;60.20
51661;DHT22;37741;49.748;8.490;2024-03-02T13:51:40;14.00;59.40
51661;DHT22;37741;49.748;8.490;2024-03-02T13:54:05;14.00;59.40
51661;DHT22;37741;49.748;8.490;2024-03-02T13:56:31;14.00;60.40
51661;DHT22;37741;49.748;8.490;2024-03-02T13:58:58;14.10;59.80
51661;DHT22;37741;49.748;8.490;2024-03-02T14:01:24;14.20;59.60
51661;DHT22;37741;49.748;8.490;2024-03-02T14:03:50;14.30;59.30
51661;DHT22;37741;49.748;8.490;2024-03-02T14:06:16;14.40;58.70
51661;DHT22;37741;49.748;8.490;2024-03-02T14:08:42;14.40;59.30
51661;DHT22;37741;49.748;8.490;2024-03-02T14:11:10;14.50;58.60
51661;DHT22;37741;49.748;8.490;2024-03-02T14:13:43;14.50;58.90
51661;DHT22;37741;49.748;8.490;2024-03-02T14:16:12;14.60;60.90
51661;DHT22;37741;49.748;8.490;2024-03-02T14:18:37;14.70;59.30
51661;DHT22;37741;49.748;8.490;2024-03-02T14:21:03;14.80;58.70
51661;DHT22;37741;49.748;8.490;2024-03-02T14:23:29;14.80;57.70
51661;DHT22;37741;49.748;8.490;2024-03-02T14:25:55;14.80;58.20
51661;DHT22;37741;49.748;8.490;2024-03-02T14:28:21;14.80;58.40
51661;DHT22;37741;49.748;8.490;2024-03-02T14:30:47;14.90;58.30
51661;DHT22;37741;49.748;8.490;2024-03-02T14:33:13;14.90;58.40
51661;DHT22;37741;49.748;8.490;2024-03-02T14:35:39;14.90;57.70
51661;DHT22;37741;49.748;8.490;2024-03-02T14:38:04;14.90;57.40
51661;DHT22;37741;49.748;8.490;2024-03-02T14:40:30;14.90;57.60
51661;DHT22;37741;49.748;8.490;2024-03-02T14:42:56;14.90;58.00
51661;DHT22;37741;49.748;8.490;2024-03-02T14:45:22;14.90;57.80
51661;DHT22;37741;49.748;8.490;2024-03-02T14:47:49;14.90;58.10
51661;DHT22;37741;49.748;8.490;2024-03-02T14:50:14;14.90;57.70
51661;DHT22;37741;49.748;8.490;2024-03-02T14:52:42;14.90;57.80
51661;DHT22;37741;49.748;8.490;2024-03-02T14:55:07;14.90;58.50
51661;DHT22;37741;49.748;8.490;2024-03-02T14:57:33;14.90;57.80
51661;DHT22;37741;49.748;8.490;2024-03-02T14:59:59;15.00;58.50
51661;DHT22;37741;49.748;8.490;2024-03-02T15:02:24;15.10;57.60
51661;DHT22;37741;49.748;8.490;2024-03-02T15:04:52;15.10;57.90
51661;DHT22;37741;49.748;8.490;2024-03-02T15:07:18;15.10;58.60
51661;DHT22;37741;49.748;8.490;2024-03-02T15:09:43;15.20;57.80
51661;DHT22;37741;49.748;8.490;2024-03-02T15:12:10;15.20;56.70
51661;DHT22;37741;49.748;8.490;2024-03-02T15:14:38;15.20;56.50
51661;DHT22;37741;49.748;8.490;2024-03-02T15:17:06;15.20;57.10
51661;DHT22;37741;49.748;8.490;2024-03-02T15:19:32;15.20;57.90
51661;DHT22;37741;49.748;8.490;2024-03-02T15:21:57;15.20;58.20
51661;DHT22;37741;49.748;8.490;2024-03-02T15:24:23;15.20;58.30
51661;DHT22;37741;49.748;8.490;2024-03-02T15:26:50;15.20;57.60
51661;DHT22;37741;49.748;8.490;2024-03-02T15:29:15;15.20;57.80
51661;DHT22;37741;49.748;8.490;2024-03-02T15:31:41;15.10;57.50
51661;DHT22;37741;49.748;8.490;2024-03-02T15:34:07;15.00;58.50
51661;DHT22;37741;49.748;8.490;2024-03-02T15:36:34;14.90;58.90
51661;DHT22;37741;49.748;8.490;2024-03-02T15:39:00;14.90;59.70
51661;DHT22;37741;49.748;8.490;2024-03-02T15:41:27;14.80;61.40
51661;DHT22;37741;49.748;8.490;2024-03-02T15:43:52;14.70;61.70
51661;DHT22;37741;49.748;8.490;2024-03-02T15:46:18;14.60;62.00